Time;durP1;ratioP1;P1;durP2;ratioP2;P2;SDS_P1;SDS_P2;PMS_P1;PMS_P2;Temp;Humidity;BMP_temperature;BMP_pressure;BME280_temperature;BME280_humidity;BME280_pressure;Samples;Min_cycle;Max_cycle;Signal;HPM_P1;HPM_P2
2022/10/04 00:00:44;;;;;;;10.83;3.30;;;13.60;99.90;;;;;;5075927;28;20233;-86
2022/10/04 00:03:22;;;;;;;7.40;3.17;;;13.60;99.90;;;;;;5076095;28;20558;-85
2022/10/04 00:05:51;;;;;;;4.27;2.87;;;13.60;99.90;;;;;;5074583;28;20244;-85
2022/10/04 00:08:26;;;;;;;12.63;2.90;;;13.60;99.90;;;;;;5072356;28;20184;-84
2022/10/04 00:11:18;;;;;;;11.37;4.07;;;13.50;99.90;;;;;;5078641;28;20582;-84
2022/10/04 00:13:53;;;;;;;9.40;4.50;;;13.50;99.90;;;;;;5075035;28;20298;-83
2022/10/04 00:16:25;;;;;;;8.40;4.13;;;13.50;99.90;;;;;;5077912;28;20422;-82
2022/10/04 00:19:12;;;;;;;4.57;3.23;;;13.50;99.90;;;;;;5078321;28;20340;-84
2022/10/04 00:21:56;;;;;;;4.80;3.90;;;13.50;99.90;;;;;;5077362;28;20698;-82
2022/10/04 00:24:24;;;;;;;6.77;2.97;;;13.50;99.90;;;;;;5078894;28;20220;-82
2022/10/04 00:26:50;;;;;;;8.27;4.50;;;13.50;99.90;;;;;;5079646;28;20205;-81
2022/10/04 00:29:32;;;;;;;6.70;3.53;;;13.50;99.90;;;;;;5079406;28;20207;-83
2022/10/04 00:32:11;;;;;;;10.60;4.47;;;13.40;99.90;;;;;;5076850;28;20196;-84
2022/10/04 00:34:48;;;;;;;6.07;3.90;;;13.50;99.90;;;;;;5078553;28;20233;-85
2022/10/04 00:37:16;;;;;;;7.63;4.10;;;13.40;99.90;;;;;;5077498;28;20221;-86
2022/10/04 00:39:44;;;;;;;5.70;4.20;;;13.50;99.90;;;;;;5077788;28;20278;-86
2022/10/04 00:42:55;;;;;;;6.00;4.10;;;13.50;99.90;;;;;;5060706;28;20247;-84
2022/10/04 00:45:27;;;;;;;7.37;4.27;;;13.50;99.90;;;;;;5041579;28;20649;-86
2022/10/04 00:48:03;;;;;;;5.83;4.00;;;13.50;99.90;;;;;;5079348;28;20281;-84
2022/10/04 00:50:31;;;;;;;9.10;4.73;;;13.50;99.90;;;;;;5078277;28;20682;-86
2022/10/04 00:52:59;;;;;;;9.10;4.87;;;13.50;99.90;;;;;;5081065;28;20218;-84
2022/10/04 00:55:34;;;;;;;14.63;6.37;;;13.50;99.90;;;;;;5059640;28;20260;-84
2022/10/04 00:58:04;;;;;;;13.03;6.00;;;13.60;99.90;;;;;;5078382;28;20228;-84
2022/10/04 01:00:32;;;;;;;8.40;4.67;;;13.60;99.90;;;;;;5080326;28;20256;-86
2022/10/04 01:03:03;;;;;;;7.77;5.60;;;13.60;99.90;;;;;;5077751;28;20222;-85
2022/10/04 01:05:54;;;;;;;14.17;6.53;;;13.70;99.90;;;;;;5079215;28;20210;-84
2022/10/04 01:08:31;;;;;;;8.03;4.50;;;13.70;99.90;;;;;;5079295;28;20212;-86
2022/10/04 01:11:15;;;;;;;10.43;5.13;;;13.60;99.90;;;;;;5080725;28;20279;-84
2022/10/04 01:13:55;;;;;;;25.03;5.43;;;13.70;99.90;;;;;;5078007;28;20237;-86
2022/10/04 01:16:26;;;;;;;8.33;4.87;;;13.60;99.90;;;;;;5076715;28;20682;-82
2022/10/04 01:18:52;;;;;;;8.17;5.27;;;13.60;99.90;;;;;;5076554;28;20228;-82
2022/10/04 01:21:20;;;;;;;9.53;5.10;;;13.60;99.90;;;;;;5076213;28;20580;-85
2022/10/04 01:23:50;;;;;;;11.10;5.10;;;13.60;99.90;;;;;;5076321;28;20270;-84
2022/10/04 01:26:38;;;;;;;10.50;5.23;;;13.50;99.90;;;;;;5077389;28;20726;-83
2022/10/04 01:29:23;;;;;;;11.43;5.23;;;13.50;99.90;;;;;;5077552;28;20588;-83
2022/10/04 01:31:52;;;;;;;12.27;4.10;;;13.40;99.90;;;;;;5076765;28;20259;-83
2022/10/04 01:34:23;;;;;;;14.93;5.07;;;13.30;99.90;;;;;;5075200;28;20303;-83
2022/10/04 01:36:53;;;;;;;7.10;5.53;;;13.30;99.90;;;;;;5092623;28;20333;-83
2022/10/04 01:39:22;;;;;;;8.63;6.10;;;13.20;99.90;;;;;;5078725;28;20319;-84
2022/10/04 01:42:13;;;;;;;9.90;5.37;;;13.20;99.90;;;;;;5077392;28;20710;-83
2022/10/04 01:44:49;;;;;;;16.10;5.93;;;13.10;99.90;;;;;;5078007;28;20213;-86
2022/10/04 01:47:21;;;;;;;12.27;5.30;;;13.10;99.90;;;;;;5077246;28;20181;-85
2022/10/04 01:49:48;;;;;;;10.93;5.07;;;13.00;99.90;;;;;;5078915;28;20263;-84
2022/10/04 01:52:17;;;;;;;7.90;4.23;;;13.00;99.90;;;;;;5060879;28;20231;-84
2022/10/04 01:54:47;;;;;;;7.97;4.40;;;12.90;99.90;;;;;;5077229;28;20221;-85
2022/10/04 01:57:22;;;;;;;10.07;4.97;;;12.90;99.90;;;;;;5077205;28;20220;-83
2022/10/04 02:00:01;;;;;;;12.30;5.17;;;12.90;99.90;;;;;;5076960;28;20686;-85
2022/10/04 02:02:35;;;;;;;5.87;4.83;;;12.80;99.90;;;;;;5077723;28;20185;-84
2022/10/04 02:05:05;;;;;;;16.23;4.50;;;12.80;99.90;;;;;;5075018;28;20188;-83
2022/10/04 02:07:32;;;;;;;5.07;4.10;;;12.80;99.90;;;;;;5075056;28;20224;-86
2022/10/04 02:10:03;;;;;;;9.53;5.43;;;12.70;99.90;;;;;;5074824;28;20224;-84
2022/10/04 02:12:30;;;;;;;9.50;4.73;;;12.70;99.90;;;;;;5092105;28;20269;-84
2022/10/04 02:15:00;;;;;;;7.70;4.93;;;12.70;99.90;;;;;;5091876;28;20288;-86
2022/10/04 02:17:29;;;;;;;10.67;4.23;;;12.60;99.90;;;;;;5076991;28;20199;-86
2022/10/04 02:19:57;;;;;;;7.13;4.43;;;12.60;99.90;;;;;;5078003;28;20342;-86
2022/10/04 02:22:24;;;;;;;12.03;5.17;;;12.60;99.90;;;;;;5076344;28;20278;-86
2022/10/04 02:24:53;;;;;;;10.17;4.80;;;12.60;99.90;;;;;;5059711;28;20275;-84
2022/10/04 02:27:19;;;;;;;7.70;5.33;;;12.60;99.90;;;;;;5077722;28;20240;-85
2022/10/04 02:29:45;;;;;;;14.30;4.57;;;12.60;99.90;;;;;;5077507;28;20849;-84
2022/10/04 02:34:57;;;;;;;16.00;4.77;;;12.60;99.90;;;;;;5077691;28;20296;-84
2022/10/04 02:37:26;;;;;;;8.30;4.43;;;12.60;99.90;;;;;;5059190;28;20216;-86
2022/10/04 02:40:03;;;;;;;8.50;4.63;;;12.50;99.90;;;;;;5077520;28;20229;-84
2022/10/04 02:42:47;;;;;;;9.00;4.67;;;12.50;99.90;;;;;;5076036;28;20309;-85
2022/10/04 02:45:18;;;;;;;8.33;5.83;;;12.50;99.90;;;;;;5077696;28;20247;-85
2022/10/04 02:48:00;;;;;;;9.37;4.67;;;12.40;99.90;;;;;;5076092;28;20212;-83
2022/10/04 02:50:34;;;;;;;7.07;4.80;;;12.40;99.90;;;;;;5074942;28;20185;-85
2022/10/04 02:53:21;;;;;;;11.73;4.20;;;12.40;99.90;;;;;;5073991;28;20192;-83
2022/10/04 02:55:48;;;;;;;7.73;5.37;;;12.40;99.90;;;;;;5076838;28;20206;-83
2022/10/04 02:58:18;;;;;;;9.40;4.27;;;12.30;99.90;;;;;;5074085;28;20213;-83
2022/10/04 03:00:55;;;;;;;11.83;5.13;;;12.30;99.90;;;;;;5076550;28;20273;-82
2022/10/04 03:03:36;;;;;;;9.70;5.63;;;12.30;99.90;;;;;;5071087;28;20243;-83
2022/10/04 03:06:16;;;;;;;11.57;4.90;;;12.30;99.90;;;;;;5071356;28;20846;-83
2022/10/04 03:08:42;;;;;;;9.33;4.83;;;12.30;99.90;;;;;;5073220;28;20217;-83
2022/10/04 03:11:10;;;;;;;18.43;5.80;;;12.30;99.90;;;;;;5074684;28;20216;-85
2022/10/04 03:13:38;;;;;;;7.47;4.47;;;12.30;99.90;;;;;;5069749;28;20233;-85
2022/10/04 03:16:05;;;;;;;14.20;6.10;;;12.30;99.90;;;;;;5067719;28;20216;-83
2022/10/04 03:18:34;;;;;;;10.10;4.70;;;12.30;99.90;;;;;;5069783;28;20221;-85
2022/10/04 03:21:07;;;;;;;7.93;5.13;;;12.30;99.90;;;;;;5071701;28;20261;-85
2022/10/04 03:23:34;;;;;;;12.37;5.67;;;12.30;99.90;;;;;;5072626;28;20184;-84
2022/10/04 03:26:05;;;;;;;12.17;5.13;;;12.20;99.90;;;;;;5069677;28;20234;-85
2022/10/04 03:28:31;;;;;;;12.37;6.17;;;12.20;99.90;;;;;;5074494;28;21022;-85
2022/10/04 03:30:58;;;;;;;10.27;5.07;;;12.20;99.90;;;;;;5068737;28;20225;-85
2022/10/04 03:33:25;;;;;;;9.37;5.53;;;12.20;99.90;;;;;;5073205;28;20205;-84
2022/10/04 03:35:53;;;;;;;7.37;5.43;;;12.20;99.90;;;;;;5069907;28;20581;-83
2022/10/04 03:38:21;;;;;;;8.30;5.97;;;12.30;99.90;;;;;;5070819;28;20197;-86
2022/10/04 03:40:55;;;;;;;10.83;6.37;;;12.30;99.90;;;;;;5073366;28;20644;-83
2022/10/04 03:43:30;;;;;;;11.07;6.37;;;12.30;99.90;;;;;;5072918;28;20724;-82
2022/10/04 03:45:57;;;;;;;11.00;6.40;;;12.20;99.90;;;;;;5072525;28;20223;-84
2022/10/04 03:48:40;;;;;;;9.57;5.80;;;12.20;99.90;;;;;;5056537;28;20217;-84
2022/10/04 03:51:11;;;;;;;7.30;5.33;;;12.20;99.90;;;;;;5072603;28;20208;-86
2022/10/04 03:53:43;;;;;;;12.07;6.07;;;12.10;99.90;;;;;;5074796;28;20390;-82
2022/10/04 03:56:24;;;;;;;11.70;6.03;;;12.00;99.90;;;;;;5069277;28;20504;-84
2022/10/04 03:58:51;;;;;;;18.93;6.20;;;12.00;99.90;;;;;;5079677;28;20236;-86
2022/10/04 04:01:30;;;;;;;16.40;4.97;;;11.90;99.90;;;;;;5072321;28;20220;-84
2022/10/04 04:04:08;;;;;;;14.67;5.13;;;11.90;99.90;;;;;;5070745;28;20216;-84
2022/10/04 04:06:43;;;;;;;8.50;5.50;;;11.80;99.90;;;;;;5071637;28;20270;-85
2022/10/04 04:09:20;;;;;;;9.23;5.10;;;11.90;99.90;;;;;;5068618;28;20220;-84
2022/10/04 04:11:49;;;;;;;7.57;5.43;;;11.80;99.90;;;;;;5068954;28;20219;-85
2022/10/04 04:14:23;;;;;;;12.00;5.00;;;11.80;99.90;;;;;;5066373;28;20233;-85
2022/10/04 04:16:51;;;;;;;6.13;4.83;;;11.80;99.90;;;;;;5073328;28;20243;-84
2022/10/04 04:19:21;;;;;;;8.87;5.77;;;11.80;99.90;;;;;;5073568;28;20270;-85
2022/10/04 04:21:48;;;;;;;9.13;5.47;;;11.80;99.90;;;;;;5070253;28;20563;-87
2022/10/04 04:24:30;;;;;;;9.03;5.70;;;11.80;99.90;;;;;;5055252;28;20213;-85
2022/10/04 04:27:04;;;;;;;9.87;6.47;;;11.80;99.90;;;;;;5065173;28;20673;-84
2022/10/04 04:29:50;;;;;;;7.73;4.93;;;11.80;99.90;;;;;;5069096;28;20179;-83
2022/10/04 04:32:24;;;;;;;10.63;5.40;;;11.80;99.90;;;;;;5069537;28;20188;-85
2022/10/04 04:34:56;;;;;;;10.60;6.37;;;11.80;99.90;;;;;;5075083;28;20195;-85
2022/10/04 04:37:23;;;;;;;11.27;7.13;;;11.80;99.90;;;;;;5070094;28;20241;-85
2022/10/04 04:39:56;;;;;;;12.03;6.03;;;11.80;99.90;;;;;;5078815;28;20923;-86
2022/10/04 04:42:31;;;;;;;12.43;7.23;;;11.80;99.90;;;;;;5070976;28;20217;-85
2022/10/04 04:45:01;;;;;;;10.43;5.87;;;11.90;99.90;;;;;;5074213;28;20219;-85
2022/10/04 04:47:37;;;;;;;6.90;5.70;;;11.80;99.90;;;;;;5067232;28;20185;-85
2022/10/04 04:50:17;;;;;;;9.63;6.47;;;11.80;99.90;;;;;;5068355;28;20185;-86
2022/10/04 04:52:49;;;;;;;11.60;6.27;;;11.80;99.90;;;;;;5051919;28;20297;-88
2022/10/04 04:55:25;;;;;;;8.23;5.43;;;11.80;99.90;;;;;;5070731;28;20224;-91
2022/10/04 04:57:54;;;;;;;9.40;6.83;;;11.80;99.90;;;;;;5074514;28;20205;-86
2022/10/04 05:00:27;;;;;;;14.10;5.83;;;11.70;99.90;;;;;;5078705;28;20236;-86
2022/10/04 05:03:00;;;;;;;7.63;6.37;;;11.70;99.90;;;;;;5077100;28;21139;-89
2022/10/04 05:05:31;;;;;;;10.27;6.17;;;11.70;99.90;;;;;;5078493;28;20287;-88
2022/10/04 05:08:27;;;;;;;19.10;7.13;;;11.70;99.90;;;;;;5078101;28;20188;-91
2022/10/04 05:11:08;;;;;;;16.50;8.23;;;11.80;99.90;;;;;;5075254;28;20283;-89
2022/10/04 05:13:48;;;;;;;9.47;6.63;;;11.70;99.90;;;;;;5078111;28;20216;-88
2022/10/04 05:16:19;;;;;;;9.77;6.73;;;11.70;99.90;;;;;;5069645;28;20629;-89
2022/10/04 05:18:47;;;;;;;9.57;6.63;;;11.70;99.90;;;;;;5070797;28;20232;-86
2022/10/04 05:21:19;;;;;;;13.70;7.27;;;11.70;99.90;;;;;;5079450;28;20228;-87
2022/10/04 05:23:45;;;;;;;12.97;6.67;;;11.70;99.90;;;;;;5076817;28;20685;-91
2022/10/04 05:26:12;;;;;;;13.10;7.60;;;11.70;99.90;;;;;;5044829;28;20195;-86
2022/10/04 05:28:39;;;;;;;25.23;8.13;;;11.70;99.90;;;;;;5058958;28;20236;-87
2022/10/04 05:31:17;;;;;;;10.90;7.03;;;11.70;99.90;;;;;;5061240;28;20228;-85
2022/10/04 05:33:51;;;;;;;10.67;6.53;;;11.70;99.90;;;;;;5078182;28;20212;-88
2022/10/04 05:36:28;;;;;;;20.77;7.80;;;11.70;99.90;;;;;;5074539;28;20259;-86
2022/10/04 05:39:05;;;;;;;13.97;7.63;;;11.70;99.90;;;;;;5079251;28;20274;-85
2022/10/04 05:42:11;;;;;;;11.27;6.27;;;11.70;99.90;;;;;;5077736;28;20185;-87
2022/10/04 05:44:49;;;;;;;13.17;7.70;;;11.70;99.90;;;;;;5076826;28;20213;-89
2022/10/04 05:47:22;;;;;;;12.67;7.57;;;11.70;99.90;;;;;;5077171;28;20205;-88
2022/10/04 05:49:51;;;;;;;11.33;7.37;;;11.60;99.90;;;;;;5065183;28;20273;-89
2022/10/04 05:52:29;;;;;;;11.70;8.17;;;11.60;99.90;;;;;;5076669;28;20219;-89
2022/10/04 05:55:20;;;;;;;14.60;7.77;;;11.70;99.90;;;;;;5078435;28;21049;-87
2022/10/04 05:58:18;;;;;;;14.43;7.30;;;11.60;99.90;;;;;;5078049;28;20216;-88
2022/10/04 06:00:55;;;;;;;12.57;6.87;;;11.70;99.90;;;;;;5076276;28;20217;-89
2022/10/04 06:03:46;;;;;;;12.07;6.70;;;11.70;99.90;;;;;;5075249;28;20216;-88
2022/10/04 06:06:23;;;;;;;14.03;9.47;;;11.70;99.90;;;;;;5076423;28;20247;-88
2022/10/04 06:09:16;;;;;;;32.67;8.50;;;11.70;99.90;;;;;;5076463;28;20244;-87
2022/10/04 06:11:51;;;;;;;15.27;8.33;;;11.70;99.90;;;;;;5077828;28;20224;-88
2022/10/04 06:14:47;;;;;;;21.30;9.07;;;11.90;99.90;;;;;;5074741;28;20246;-89
2022/10/04 06:17:28;;;;;;;11.83;7.70;;;12.10;99.90;;;;;;5064841;28;20200;-88
2022/10/04 06:20:12;;;;;;;13.40;8.43;;;12.40;99.90;;;;;;5075605;28;20259;-90
2022/10/04 06:22:47;;;;;;;20.33;10.17;;;12.60;99.90;;;;;;5075665;28;20216;-92
2022/10/04 06:25:21;;;;;;;16.30;9.37;;;12.90;99.90;;;;;;5079199;28;20307;-90
2022/10/04 06:28:03;;;;;;;11.97;8.93;;;13.00;99.90;;;;;;5076508;28;20225;-89
2022/10/04 06:30:52;;;;;;;13.57;8.57;;;12.80;99.90;;;;;;5074788;28;20315;-88
2022/10/04 06:33:21;;;;;;;21.17;9.47;;;12.90;99.90;;;;;;5077059;28;20209;-86
2022/10/04 06:36:08;;;;;;;12.03;8.73;;;13.10;99.90;;;;;;5077415;28;20304;-88
2022/10/04 06:39:26;;;;;;;9.23;7.07;;;13.30;99.90;;;;;;5078249;28;20184;-88
2022/10/04 06:42:10;;;;;;;14.60;7.93;;;13.20;99.90;;;;;;4999532;28;20288;-88
2022/10/04 06:44:57;;;;;;;10.73;8.30;;;13.70;99.90;;;;;;5016094;28;20233;-88
2022/10/04 06:47:53;;;;;;;18.23;8.30;;;14.20;99.90;;;;;;5060897;28;21012;-87
2022/10/04 06:50:37;;;;;;;14.10;6.73;;;14.20;99.90;;;;;;4997188;28;20217;-88
2022/10/04 06:53:34;;;;;;;7.67;6.73;;;14.00;99.90;;;;;;5076357;28;20307;-86
2022/10/04 06:56:14;;;;;;;10.27;6.67;;;13.80;99.90;;;;;;5077924;28;20221;-85
2022/10/04 06:58:52;;;;;;;10.50;6.37;;;14.00;99.90;;;;;;5076338;28;20223;-86
2022/10/04 07:01:33;;;;;;;13.33;6.43;;;14.20;99.90;;;;;;5077352;28;20333;-89
2022/10/04 07:04:35;;;;;;;14.33;7.43;;;14.10;99.90;;;;;;5074462;28;20248;-89
2022/10/04 07:07:26;;;;;;;10.60;6.30;;;14.20;99.90;;;;;;5075210;28;20216;-88
2022/10/04 07:10:06;;;;;;;9.43;7.20;;;14.10;99.90;;;;;;5075029;28;20229;-87
2022/10/04 07:12:37;;;;;;;12.43;6.07;;;14.00;99.90;;;;;;5076364;28;20227;-88
2022/10/04 07:15:15;;;;;;;15.83;7.03;;;14.10;99.90;;;;;;5076187;28;20251;-87
2022/10/04 07:17:44;;;;;;;22.97;8.97;;;14.10;99.90;;;;;;5073841;28;20288;-86
2022/10/04 07:20:22;;;;;;;21.07;8.93;;;14.00;99.90;;;;;;5076675;28;20343;-89
2022/10/04 07:23:01;;;;;;;9.57;6.43;;;13.90;99.90;;;;;;5076345;28;20337;-89
2022/10/04 07:25:40;;;;;;;18.60;6.40;;;13.90;99.90;;;;;;5075644;28;20220;-86
2022/10/04 07:31:09;;;;;;;9.80;6.63;;;13.90;99.90;;;;;;5074685;28;20597;-88
2022/10/04 07:34:08;;;;;;;15.27;6.30;;;13.90;99.90;;;;;;5075580;28;20681;-89
2022/10/04 07:36:44;;;;;;;9.73;6.30;;;13.80;99.90;;;;;;5079419;28;21197;-88
2022/10/04 07:39:25;;;;;;;8.00;5.80;;;13.80;99.90;;;;;;5074951;28;20635;-89
2022/10/04 07:42:06;;;;;;;12.37;6.40;;;13.80;99.90;;;;;;5075888;28;20227;-90
2022/10/04 07:44:39;;;;;;;16.83;7.73;;;13.90;99.90;;;;;;5076395;28;20687;-88
2022/10/04 07:47:26;;;;;;;18.33;7.80;;;15.00;99.90;;;;;;5075669;28;20694;-88
2022/10/04 07:49:57;;;;;;;10.80;7.00;;;16.60;99.90;;;;;;5077490;28;20225;-92
2022/10/04 07:52:38;;;;;;;10.77;7.20;;;18.10;99.90;;;;;;5075547;28;20217;-89
2022/10/04 07:55:27;;;;;;;8.03;5.53;;;19.20;99.90;;;;;;5075457;28;20295;-91
2022/10/04 07:58:14;;;;;;;10.57;6.70;;;20.20;99.90;;;;;;5077387;28;20250;-90
2022/10/04 08:01:03;;;;;;;9.30;5.17;;;21.20;99.90;;;;;;5076061;28;20720;-93
2022/10/04 08:03:31;;;;;;;8.70;5.93;;;20.40;99.90;;;;;;5073299;28;20217;-92
2022/10/04 08:06:26;;;;;;;6.90;5.00;;;20.50;99.90;;;;;;5073438;28;20220;-93
2022/10/04 08:09:11;;;;;;;11.73;4.83;;;21.50;99.90;;;;;;5078569;28;20235;-93
2022/10/04 08:12:03;;;;;;;10.07;5.30;;;21.60;99.90;;;;;;5076948;28;20755;-91
2022/10/04 08:14:54;;;;;;;20.23;6.53;;;21.70;99.90;;;;;;5075829;28;20228;-92
2022/10/04 08:17:40;;;;;;;9.87;5.80;;;22.60;99.90;;;;;;5062291;28;20678;-89
2022/10/04 08:20:18;;;;;;;9.13;4.70;;;22.60;99.90;;;;;;5076112;28;20232;-92
2022/10/04 08:23:11;;;;;;;7.77;5.27;;;21.40;99.90;;;;;;5089047;28;20235;-90
2022/10/04 08:25:37;;;;;;;5.57;4.53;;;21.50;99.90;;;;;;5079239;28;20217;-91
2022/10/04 08:31:16;;;;;;;8.17;5.40;;;21.10;99.90;;;;;;5013483;28;20253;-89
2022/10/04 08:34:05;;;;;;;10.10;6.17;;;21.10;99.90;;;;;;5000100;28;20689;-89
2022/10/04 08:37:10;;;;;;;6.17;5.03;;;21.90;99.90;;;;;;5055346;28;20233;-90
2022/10/04 08:39:54;;;;;;;9.77;5.70;;;21.60;99.90;;;;;;5076562;28;20306;-90
2022/10/04 08:42:25;;;;;;;9.70;5.97;;;20.90;99.90;;;;;;5077924;28;20228;-88
2022/10/04 08:45:06;;;;;;;8.03;6.20;;;20.60;99.90;;;;;;5078708;28;20216;-90
2022/10/04 08:47:35;;;;;;;12.07;6.03;;;20.00;99.90;;;;;;5078432;28;20177;-88
2022/10/04 08:50:25;;;;;;;12.40;6.00;;;19.30;99.90;;;;;;5078585;28;20196;-90
2022/10/04 08:53:17;;;;;;;11.00;6.30;;;18.70;99.90;;;;;;5079424;28;20213;-88
2022/10/04 08:56:09;;;;;;;11.63;6.13;;;18.00;99.90;;;;;;5077599;28;20309;-90
2022/10/04 08:58:58;;;;;;;8.53;6.03;;;17.80;99.90;;;;;;5075913;28;20224;-90
2022/10/04 09:01:55;;;;;;;9.43;5.83;;;17.30;99.90;;;;;;5079106;28;20228;-91
2022/10/04 09:05:09;;;;;;;9.33;5.17;;;17.50;99.90;;;;;;5079626;28;20279;-90
2022/10/04 09:07:59;;;;;;;11.67;7.00;;;17.20;99.90;;;;;;5077954;28;20213;-89
2022/10/04 09:10:39;;;;;;;11.97;7.43;;;16.90;99.90;;;;;;5075267;28;20225;-88
2022/10/04 09:13:21;;;;;;;11.30;7.37;;;16.80;99.90;;;;;;5077771;28;20251;-88
2022/10/04 09:15:50;;;;;;;13.47;7.57;;;16.80;99.90;;;;;;5077371;28;21188;-89
2022/10/04 09:18:47;;;;;;;15.33;7.90;;;17.00;99.90;;;;;;5076163;28;20307;-88
2022/10/04 09:21:25;;;;;;;10.73;6.00;;;17.00;99.90;;;;;;5076994;28;20255;-90
2022/10/04 09:23:52;;;;;;;14.47;6.57;;;16.80;99.90;;;;;;5076118;28;20236;-90
2022/10/04 09:26:22;;;;;;;14.63;6.53;;;16.80;99.90;;;;;;5076945;28;20197;-89
2022/10/04 09:29:22;;;;;;;14.93;7.30;;;16.60;99.90;;;;;;5076405;28;20578;-90
2022/10/04 09:32:19;;;;;;;11.60;6.67;;;16.70;99.90;;;;;;5077602;28;20233;-89
2022/10/04 09:34:56;;;;;;;9.80;6.17;;;17.20;99.90;;;;;;5077374;28;20217;-90
2022/10/04 09:38:01;;;;;;;12.40;6.63;;;17.10;99.90;;;;;;5077932;28;20226;-90
2022/10/04 09:40:27;;;;;;;13.73;6.67;;;17.10;99.90;;;;;;5075437;28;20312;-89
2022/10/04 09:43:30;;;;;;;17.83;6.57;;;16.80;99.90;;;;;;5076536;28;20715;-90
2022/10/04 09:46:15;;;;;;;15.23;7.20;;;16.70;99.90;;;;;;5078430;28;20577;-89
2022/10/04 09:49:08;;;;;;;12.20;6.33;;;16.70;99.90;;;;;;5078563;28;20235;-89
2022/10/04 09:52:15;;;;;;;9.93;6.83;;;17.10;99.90;;;;;;5079667;28;20571;-88
2022/10/04 09:54:51;;;;;;;10.97;7.73;;;17.60;99.90;;;;;;5077885;28;20252;-88
2022/10/04 09:57:40;;;;;;;13.67;7.20;;;18.10;99.90;;;;;;5077589;28;20224;-89
2022/10/04 10:00:25;;;;;;;11.50;6.63;;;18.80;99.90;;;;;;5077547;28;20315;-88
2022/10/04 10:02:57;;;;;;;10.57;6.57;;;18.50;99.90;;;;;;5076567;28;20319;-90
2022/10/04 10:05:47;;;;;;;10.07;6.83;;;17.90;99.90;;;;;;5077463;28;20194;-90
2022/10/04 10:08:29;;;;;;;9.33;6.00;;;17.40;99.90;;;;;;5078669;28;20193;-87
2022/10/04 10:14:12;;;;;;;11.77;6.73;;;17.10;99.90;;;;;;5077308;28;20227;-90
2022/10/04 10:16:59;;;;;;;10.00;6.80;;;18.10;99.90;;;;;;5074374;28;20229;-90
2022/10/04 10:19:44;;;;;;;14.83;7.70;;;19.40;99.90;;;;;;5078144;28;20236;-89
2022/10/04 10:22:27;;;;;;;12.80;6.87;;;19.50;99.90;;;;;;5077404;28;20286;-87
2022/10/04 10:25:09;;;;;;;12.77;6.53;;;19.10;99.90;;;;;;5076044;28;20320;-87
2022/10/04 10:28:13;;;;;;;13.20;7.03;;;18.30;99.90;;;;;;5075507;28;20221;-90
2022/10/04 10:30:57;;;;;;;11.10;6.57;;;17.90;99.90;;;;;;5044656;28;20224;-89
2022/10/04 10:34:02;;;;;;;8.07;4.97;;;18.10;99.90;;;;;;5078749;28;20216;-90
2022/10/04 10:36:36;;;;;;;11.57;6.80;;;18.70;99.90;;;;;;5008843;28;20222;-88
2022/10/04 10:39:26;;;;;;;7.40;4.93;;;19.80;99.90;;;;;;5009588;28;20345;-88
2022/10/04 10:42:26;;;;;;;14.07;6.27;;;19.80;99.90;;;;;;5059978;28;20222;-89
2022/10/04 10:45:13;;;;;;;9.90;6.57;;;19.60;99.90;;;;;;5076047;28;20212;-87
2022/10/04 10:47:55;;;;;;;11.93;7.00;;;20.50;99.90;;;;;;5073882;28;21045;-91
2022/10/04 10:50:58;;;;;;;12.13;8.03;;;20.20;99.90;;;;;;5077746;28;20193;-87
2022/10/04 10:53:44;;;;;;;10.97;7.43;;;19.80;99.90;;;;;;5076684;28;20249;-86
2022/10/04 10:56:44;;;;;;;10.60;6.70;;;19.90;99.90;;;;;;5073478;28;20276;-86
2022/10/04 10:59:10;;;;;;;9.13;8.07;;;19.40;99.90;;;;;;5095682;28;20595;-86
2022/10/04 11:02:03;;;;;;;9.77;6.90;;;19.60;99.90;;;;;;5078735;28;20236;-90
2022/10/04 11:05:07;;;;;;;11.40;7.43;;;19.80;99.90;;;;;;5074836;28;20328;-86
2022/10/04 11:07:33;;;;;;;11.20;7.93;;;19.30;99.90;;;;;;5075463;28;20259;-88
2022/10/04 11:10:26;;;;;;;12.13;7.07;;;19.30;99.90;;;;;;5076301;28;20231;-86
2022/10/04 11:13:01;;;;;;;14.63;7.60;;;18.70;99.90;;;;;;5075199;28;20221;-88
2022/10/04 11:16:11;;;;;;;11.80;7.20;;;18.70;99.90;;;;;;5082889;28;20244;-87
2022/10/04 11:18:56;;;;;;;10.37;6.97;;;19.20;99.90;;;;;;5074050;28;20224;-88
2022/10/04 11:21:40;;;;;;;16.57;8.57;;;19.10;99.90;;;;;;5075124;28;20209;-88
2022/10/04 11:24:44;;;;;;;9.20;7.17;;;18.80;99.90;;;;;;5078310;28;20256;-91
2022/10/04 11:27:47;;;;;;;12.37;7.97;;;18.20;99.90;;;;;;5074476;28;20221;-89
2022/10/04 11:30:25;;;;;;;12.70;7.80;;;18.20;99.90;;;;;;5074220;28;20253;-88
2022/10/04 11:33:10;;;;;;;7.40;6.37;;;18.20;99.90;;;;;;5073281;28;20287;-89
2022/10/04 11:35:45;;;;;;;10.93;6.90;;;18.20;99.90;;;;;;5074675;28;20221;-88
2022/10/04 11:38:29;;;;;;;9.30;7.60;;;17.70;99.90;;;;;;5074038;28;20207;-88
2022/10/04 11:41:16;;;;;;;11.73;7.60;;;18.00;99.90;;;;;;5073927;28;20581;-89
2022/10/04 11:44:13;;;;;;;10.70;6.93;;;18.40;99.90;;;;;;5074917;28;20565;-86
2022/10/04 11:46:42;;;;;;;11.43;7.43;;;18.60;99.90;;;;;;5073620;28;20213;-86
2022/10/04 11:49:39;;;;;;;9.57;7.30;;;18.50;99.90;;;;;;5073756;28;20251;-86
2022/10/04 11:52:29;;;;;;;10.10;7.90;;;18.20;99.90;;;;;;5075021;28;20217;-91
2022/10/04 11:55:09;;;;;;;13.43;8.43;;;18.20;99.90;;;;;;5076632;28;20224;-88
2022/10/04 11:57:53;;;;;;;16.43;8.77;;;18.20;99.90;;;;;;5074807;28;20632;-88
2022/10/04 12:00:21;;;;;;;14.70;7.93;;;17.90;99.90;;;;;;5074673;28;20225;-87
2022/10/04 12:03:23;;;;;;;11.90;7.70;;;18.10;99.90;;;;;;5076086;28;20216;-87
2022/10/04 12:06:08;;;;;;;13.57;7.70;;;18.40;99.90;;;;;;5074271;28;20715;-88
2022/10/04 12:08:37;;;;;;;10.70;7.27;;;18.60;99.90;;;;;;5075845;28;20188;-86
2022/10/04 12:11:12;;;;;;;11.47;6.23;;;18.70;99.90;;;;;;5076610;28;20914;-87
2022/10/04 12:13:54;;;;;;;8.17;6.53;;;18.80;99.90;;;;;;5074520;28;20212;-92
2022/10/04 12:16:55;;;;;;;9.30;6.30;;;18.70;99.90;;;;;;5072439;28;20236;-87
2022/10/04 12:19:59;;;;;;;12.83;6.23;;;18.40;99.90;;;;;;5076144;28;20232;-88
2022/10/04 12:22:48;;;;;;;8.10;5.17;;;18.20;99.90;;;;;;5032820;28;20310;-88
2022/10/04 12:25:43;;;;;;;9.23;5.60;;;17.90;99.90;;;;;;5074576;28;20323;-88
2022/10/04 12:28:14;;;;;;;9.57;5.23;;;17.70;99.90;;;;;;5074432;28;20217;-89
2022/10/04 12:31:06;;;;;;;10.07;5.80;;;17.80;99.90;;;;;;5072701;28;20571;-87
2022/10/04 12:33:55;;;;;;;8.53;5.30;;;17.60;99.90;;;;;;5075489;28;20319;-87
2022/10/04 12:36:44;;;;;;;9.60;5.83;;;17.80;99.90;;;;;;5074493;28;20220;-88
2022/10/04 12:39:31;;;;;;;8.73;6.07;;;17.80;99.90;;;;;;5073143;28;20225;-87
2022/10/04 12:42:23;;;;;;;6.60;4.90;;;18.00;99.90;;;;;;5071598;28;20216;-87
2022/10/04 12:45:16;;;;;;;10.53;6.27;;;17.90;99.90;;;;;;5074751;28;20217;-88
2022/10/04 12:48:07;;;;;;;9.43;5.60;;;18.10;99.90;;;;;;5073121;28;20217;-88
2022/10/04 12:50:55;;;;;;;9.20;4.87;;;18.30;99.90;;;;;;5074490;28;20209;-86
2022/10/04 12:53:46;;;;;;;9.27;4.53;;;18.20;99.90;;;;;;5072800;28;20204;-85
2022/10/04 12:56:37;;;;;;;6.97;4.47;;;18.00;99.90;;;;;;5076338;28;20180;-86
2022/10/04 12:59:31;;;;;;;7.30;5.00;;;18.10;99.90;;;;;;5075395;28;20240;-88
2022/10/04 13:02:20;;;;;;;4.93;3.57;;;18.10;99.90;;;;;;5073245;28;20248;-87
2022/10/04 13:05:16;;;;;;;9.03;4.63;;;18.20;99.90;;;;;;5072148;28;20275;-86
2022/10/04 13:08:03;;;;;;;11.40;4.60;;;18.20;99.90;;;;;;5024938;28;20216;-87
2022/10/04 13:10:51;;;;;;;8.37;4.63;;;18.40;99.90;;;;;;5074589;28;20220;-89
2022/10/04 13:13:22;;;;;;;4.03;2.93;;;18.10;99.90;;;;;;5074303;28;20255;-85
2022/10/04 13:16:21;;;;;;;7.63;4.47;;;18.10;99.90;;;;;;5071122;28;20237;-90
2022/10/04 13:19:11;;;;;;;8.50;4.93;;;18.00;99.90;;;;;;5077089;28;20322;-88
2022/10/04 13:21:54;;;;;;;9.53;4.37;;;18.00;99.90;;;;;;5079426;28;20275;-86
2022/10/04 13:24:54;;;;;;;9.70;4.33;;;18.00;99.90;;;;;;5073834;28;20629;-87
2022/10/04 13:27:39;;;;;;;7.00;4.30;;;18.10;99.90;;;;;;5075747;28;20216;-87
2022/10/04 13:30:25;;;;;;;8.73;4.40;;;18.20;99.90;;;;;;5079219;28;20298;-85
2022/10/04 13:33:09;;;;;;;6.70;3.73;;;18.20;99.90;;;;;;5076688;28;20217;-86
2022/10/04 13:36:00;;;;;;;5.17;3.70;;;18.20;99.90;;;;;;5077990;28;21136;-86
2022/10/04 13:38:32;;;;;;;6.70;3.50;;;18.20;99.90;;;;;;5078952;28;20342;-88
2022/10/04 13:41:11;;;;;;;5.13;3.23;;;18.20;99.90;;;;;;5079924;28;20739;-87
2022/10/04 13:43:40;;;;;;;6.50;3.13;;;18.00;99.90;;;;;;5078135;28;20217;-85
2022/10/04 13:46:38;;;;;;;6.50;3.67;;;18.00;99.90;;;;;;5074813;28;21076;-85
2022/10/04 13:49:23;;;;;;;8.47;4.60;;;18.00;99.90;;;;;;5076421;28;21053;-86
2022/10/04 13:58:27;;;;;;;3.07;2.57;;;18.10;99.90;;;;;;5077879;28;20216;-85
2022/10/04 14:01:18;;;;;;;6.00;4.03;;;18.20;99.90;;;;;;5075829;28;20220;-89
2022/10/04 14:03:58;;;;;;;9.73;2.77;;;18.20;99.90;;;;;;5080639;28;20327;-87
2022/10/04 14:07:02;;;;;;;5.47;3.43;;;18.20;99.90;;;;;;5080147;28;20289;-86